Latest Weather Observations for Central Arnhem Plateau

IDD60801

Issued at 11:01 am CST Tuesday 27 September 2016 (issued every 30 minutes, with the page automatically refreshed every 10 minutes)

About weather observations | Map of weather stations | Latest weather observations for NT | Other Formats
Station Details ID: 014909 Name: CENTRAL ARNHEM PLATEAU Lat: -13.33 Lon: 133.09 Height: 416.0 m
Data from the previous 72 hours. | See also: Recent months at Central Arnhem Plateau
Date/Time
CST
Temp
°C
App
Temp
°C
Dew
Point
°C
Rel
Hum
%
Delta-T
°C
Wind Press
QNH
hPa
Press
MSL
hPa
Rain since
9am
mm
Dir  Spd
km/h
Gust
km/h
Spd
kts
Gust
kts
27/11:00am 32.3 33.4 16.6 39 10.1 ESE 6 15 3 8 1014.4 1011.7 0.0
27/10:30am 30.6 31.7 18.0 47 8.2 NW 9 15 5 8 1014.6 1012.0 0.0
27/10:00am 29.5 31.0 17.7 49 7.6 WSW 6 9 3 5 1014.8 1012.2 0.0
27/09:30am 28.7 30.7 19.1 56 6.3 W 7 13 4 7 1014.8 1012.2 0.0
27/09:00am 27.4 29.2 19.5 62 5.2 W 9 15 5 8 1015.0 1012.4 0.0
27/08:30am 26.5 27.7 19.9 67 4.4 W 13 17 7 9 1014.8 1012.2 0.0
27/08:00am 25.6 26.4 19.9 70 3.8 WNW 15 19 8 10 1014.8 1012.2 0.0
27/07:30am 25.2 26.5 19.3 70 3.8 W 11 15 6 8 1014.4 1011.7 0.0
27/07:00am 24.4 26.0 19.2 73 3.4 W 9 11 5 6 1014.0 1011.3 0.0
27/06:30am 23.7 25.2 19.0 75 3.0 W 9 11 5 6 1013.6 1011.0 0.0
27/06:00am 23.9 25.8 19.0 74 3.2 W 7 11 4 6 1013.5 1010.9 0.0
27/05:30am 24.1 25.6 19.0 73 3.3 W 9 11 5 6 1013.0 1010.4 0.0
27/05:00am 24.3 25.4 18.9 72 3.5 WNW 11 15 6 8 1012.9 1010.3 0.0
27/04:30am 24.5 25.5 18.7 70 3.7 W 11 15 6 8 1012.7 1010.1 0.0
27/04:00am 24.9 25.9 18.6 68 4.1 W 11 15 6 8 1012.5 1009.9 0.0
27/03:30am 25.0 26.5 18.9 69 4.0 WSW 9 13 5 7 1012.3 1009.7 0.0
27/03:00am 24.8 26.8 18.7 69 3.9 WNW 6 6 3 3 1012.3 1009.7 0.0
27/02:30am 24.9 26.9 18.8 69 3.9 WNW 6 7 3 4 1012.2 1009.5 0.0
27/02:00am 25.1 27.3 18.3 66 4.4 NNE 4 7 2 4 1012.5 1009.9 0.0
27/01:30am 24.7 26.6 18.9 70 3.8 ENE 7 11 4 6 1012.7 1010.1 0.0
27/01:00am 24.9 26.6 18.1 66 4.4 ENE 6 11 3 6 1013.2 1010.6 0.0
27/12:30am 25.3 27.8 18.2 64 4.6 ENE 2 11 1 6 1013.4 1010.8 0.0
27/12:00am 26.9 29.8 18.2 59 5.6 CALM 0 4 0 2 1013.3 1010.7 0.0
 
Date/Time
CST
Temp
°C
App
Temp
°C
Dew
Point
°C
Rel
Hum
%
Delta-T
°C
Wind Press
QNH
hPa
Press
MSL
hPa
Rain since
9am
mm
Dir  Spd
km/h
Gust
km/h
Spd
kts
Gust
kts
26/11:30pm 27.2 28.3 17.9 56 6.0 NW 9 11 5 6 1013.3 1010.7 0.0
26/11:00pm 27.2 27.7 17.4 55 6.3 NW 11 15 6 8 1013.5 1010.9 0.0
26/10:30pm 27.0 28.9 15.7 50 7.0 CALM 0 0 0 0 1013.5 1010.9 0.0
26/10:00pm 27.5 29.7 16.5 51 6.9 CALM 0 0 0 0 1013.5 1010.9 0.0
26/09:30pm 28.2 30.9 17.7 53 6.8 CALM 0 0 0 0 1013.6 1011.0 0.0
26/09:00pm 29.0 30.6 16.9 48 7.7 SSE 4 7 2 4 1013.3 1010.7 0.0
26/08:30pm 29.0 31.0 15.9 45 8.2 CALM 0 0 0 0 1012.9 1010.3 0.0
26/08:00pm 30.4 32.0 16.0 41 9.1 ESE 2 6 1 3 1012.5 1009.9 0.0
26/07:30pm 30.4 32.0 14.9 39 9.6 CALM 0 2 0 1 1012.2 1009.5 0.0
26/07:00pm 31.4 31.4 13.6 33 10.9 NNE 6 7 3 4 1011.8 1009.1 0.0
26/06:30pm 32.6 32.3 13.3 31 11.8 ENE 7 9 4 5 1011.2 1008.6 0.0
26/06:00pm 33.2 32.2 12.2 28 12.7 NE 9 11 5 6 1010.8 1008.2 0.0
26/05:30pm 33.6 31.6 11.5 26 13.2 NNE 13 17 7 9 1010.3 1007.7 0.0
26/05:00pm 34.1 32.0 11.3 25 13.6 ENE 13 28 7 15 1010.1 1007.5 0.0
26/04:30pm 34.3 32.1 12.0 25 13.5 ENE 15 20 8 11 1009.9 1007.2 0.0
26/04:00pm 33.7 30.9 11.5 26 13.3 NE 17 28 9 15 1010.0 1007.3 0.0
26/03:30pm 33.5 31.4 12.5 28 12.8 NE 15 26 8 14 1010.2 1007.6 0.0
26/03:00pm 33.8 32.0 13.3 29 12.6 NE 15 32 8 17 1010.5 1007.9 0.0
26/02:30pm 33.6 32.8 14.1 30 12.1 N 11 20 6 11 1010.7 1008.1 0.0
26/02:00pm 33.9 31.9 13.9 30 12.4 NE 17 28 9 15 1011.1 1008.5 0.0
26/01:30pm 32.8 31.6 13.9 31 11.7 ENE 13 24 7 13 1011.6 1008.9 0.0
26/01:00pm 32.4 31.1 13.6 32 11.5 NNE 13 32 7 17 1012.0 1009.3 0.0
26/12:30pm 33.0 30.7 14.6 33 11.5 E 20 28 11 15 1012.5 1009.9 0.0
26/12:00pm 32.5 30.1 13.7 32 11.6 ENE 19 28 10 15 1012.9 1010.3 0.0
26/11:30am 32.3 31.7 15.7 36 10.5 E 13 26 7 14 1013.3 1010.7 0.0
26/11:00am 32.0 31.4 14.6 34 10.8 E 11 19 6 10 1013.5 1010.9 0.0
26/10:30am 30.9 32.2 17.2 43 8.8 ESE 6 11 3 6 1013.7 1011.1 0.0
26/10:00am 29.8 32.0 18.3 50 7.5 NNW 4 9 2 5 1014.1 1011.4 0.0
26/09:30am 28.6 31.1 19.8 59 5.8 SW 6 11 3 6 1014.2 1011.5 0.0
26/09:00am 28.0 30.2 20.3 63 5.1 NW 9 13 5 7 1013.9 1011.2 0.0
26/08:30am 27.2 29.2 20.8 68 4.3 WNW 11 17 6 9 1013.7 1011.1 0.0
26/08:00am 26.0 28.4 20.8 73 3.5 NW 9 11 5 6 1013.9 1011.2 0.0
26/07:30am 25.0 27.8 20.5 76 3.0 NNW 6 9 3 5 1013.4 1010.8 0.0
26/07:00am 24.5 27.3 20.4 78 2.7 N 6 9 3 5 1012.9 1010.3 0.0
26/06:30am 24.5 28.4 20.4 78 2.7 CALM 0 0 0 0 1012.6 1010.0 0.0
26/06:00am 24.5 28.3 20.2 77 2.8 CALM 0 0 0 0 1012.2 1009.5 0.0
26/05:30am 24.6 28.1 20.3 77 2.8 NNW 2 7 1 4 1012.1 1009.4 0.0
26/05:00am 24.8 27.3 20.3 76 3.0 NNW 7 9 4 5 1011.7 1009.0 0.0
26/04:30am 25.0 27.9 19.8 73 3.4 NNW 4 9 2 5 1011.5 1008.8 0.0
26/04:00am 25.1 27.5 19.7 72 3.5 NNW 6 7 3 4 1011.6 1008.9 0.0
26/03:30am 25.0 27.1 19.4 71 3.7 NNW 7 9 4 5 1011.6 1008.9 0.0
26/03:00am 25.3 27.2 19.0 68 4.1 N 7 9 4 5 1011.5 1008.8 0.0
26/02:30am 25.6 27.1 18.8 66 4.4 NNW 9 11 5 6 1011.7 1009.0 0.0
26/02:00am 25.9 27.4 18.8 65 4.6 NNW 9 13 5 7 1012.0 1009.3 0.0
26/01:30am 26.2 27.8 19.1 65 4.6 N 9 13 5 7 1012.2 1009.5 0.0
26/01:00am 26.3 28.4 19.4 66 4.5 N 7 11 4 6 1012.7 1010.1 0.0
26/12:30am 26.6 28.2 19.2 64 4.8 NNW 9 15 5 8 1012.9 1010.3 0.0
26/12:00am 26.7 28.0 20.1 67 4.4 NNE 13 20 7 11 1013.3 1010.7 0.0
 
Date/Time
CST
Temp
°C
App
Temp
°C
Dew
Point
°C
Rel
Hum
%
Delta-T
°C
Wind Press
QNH
hPa
Press
MSL
hPa
Rain since
9am
mm
Dir  Spd
km/h
Gust
km/h
Spd
kts
Gust
kts
25/11:30pm 27.0 28.2 19.9 65 4.7 NW 13 19 7 10 1012.8 1010.2 0.0
25/11:00pm 27.5 28.3 20.6 66 4.6 NW 17 26 9 14 1012.8 1010.2 0.0
25/10:30pm 28.2 29.5 19.2 58 5.9 NNW 11 17 6 9 1012.7 1010.1 0.0
25/10:00pm 28.6 29.2 17.8 52 7.0 NW 11 22 6 12 1012.6 1010.0 0.0
25/09:30pm 28.4 29.6 18.2 54 6.6 NNW 9 13 5 7 1012.2 1009.5 0.0
25/09:00pm 28.5 31.9 19.4 57 6.0 CALM 0 0 0 0 1011.8 1009.1 0.0
25/08:30pm 30.0 32.0 18.8 51 7.4 SW 6 7 3 4 1011.2 1008.6 0.0
25/08:00pm 29.9 31.7 18.3 49 7.6 W 6 7 3 4 1010.8 1008.2 0.0
25/07:30pm 30.2 31.9 18.0 48 7.9 W 6 7 3 4 1010.5 1007.9 0.0
25/07:00pm 31.1 32.2 17.0 42 9.1 WNW 7 9 4 5 1010.1 1007.5 0.0
25/06:30pm 31.7 32.1 16.4 39 9.8 WNW 9 11 5 6 1009.7 1007.0 0.0
25/06:00pm 32.7 34.0 15.2 34 11.0 NNE 2 7 1 4 1009.4 1006.7 0.0
25/05:30pm 33.1 32.9 14.7 33 11.5 NE 9 13 5 7 1009.3 1006.6 0.0
25/05:00pm 34.0 34.1 15.5 33 11.7 NW 9 13 5 7 1009.0 1006.3 0.0
25/04:30pm 33.7 34.0 16.1 34 11.3 NW 9 15 5 8 1009.0 1006.3 0.0
25/04:00pm 34.5 35.1 16.8 34 11.5 WNW 9 13 5 7 1009.0 1006.3 0.0
25/03:30pm 33.1 32.6 16.0 35 10.9 N 13 26 7 14 1009.2 1006.5 0.0
25/03:00pm 32.9 32.4 15.0 34 11.3 NNW 11 17 6 9 1009.3 1006.6 0.0
25/02:30pm 33.2 33.9 15.7 35 11.1 NNW 6 11 3 6 1009.6 1006.9 0.0
25/02:00pm 32.2 33.6 16.5 39 10.1 NNE 4 7 2 4 1009.9 1007.2 0.0
25/01:30pm 32.1 32.0 16.0 38 10.2 NW 11 20 6 11 1010.1 1007.5 0.0
25/01:00pm 32.7 33.1 15.2 34 11.0 NNE 7 17 4 9 1010.6 1008.0 0.0
25/12:30pm 31.3 31.8 16.5 41 9.5 NW 9 17 5 9 1011.1 1008.5 0.0
25/12:00pm 31.2 31.6 16.4 41 9.4 SW 9 17 5 9 1011.8 1009.1 0.0
25/11:30am 31.4 32.5 18.0 44 8.7 WSW 9 17 5 9 1012.2 1009.5 0.0
25/11:00am 30.3 31.8 18.1 48 7.9 W 7 17 4 9 1012.6 1010.0 0.0
25/10:30am 29.3 30.2 18.4 51 7.1 WSW 11 17 6 9 1012.8 1010.2 0.0
25/10:00am 28.7 30.3 18.2 53 6.8 NNW 7 15 4 8 1012.9 1010.3 0.0
25/09:30am 27.9 29.3 18.6 57 6.1 WNW 9 15 5 8 1012.9 1010.3 0.0
25/09:00am 27.3 27.6 17.8 56 6.1 WNW 13 17 7 9 1013.0 1010.4 0.0
25/08:30am 26.7 27.3 18.6 61 5.3 WNW 13 17 7 9 1012.7 1010.1 0.0
25/08:00am 25.8 27.2 18.7 65 4.6 NW 9 11 5 6 1012.5 1009.9 0.0
25/07:30am 24.5 27.5 19.3 73 3.4 N 2 6 1 3 1012.2 1009.5 0.0
25/07:00am 23.8 27.3 19.5 77 2.8 CALM 0 0 0 0 1012.1 1009.4 0.0
25/06:30am 23.4 26.9 19.5 79 2.5 CALM 0 0 0 0 1011.7 1009.0 0.0
25/06:00am 23.5 26.9 19.4 78 2.7 CALM 0 0 0 0 1011.6 1008.9 0.0
25/05:30am 23.8 26.0 19.5 77 2.8 WNW 7 9 4 5 1011.1 1008.5 0.0
25/05:00am 23.9 25.0 19.6 77 2.8 WNW 13 15 7 8 1010.6 1008.0 0.0
25/04:30am 24.2 25.7 19.7 76 2.9 WNW 11 15 6 8 1010.6 1008.0 0.0
25/04:00am 24.4 25.6 19.9 76 3.0 NW 13 19 7 10 1010.6 1008.0 0.0
25/03:30am 24.7 25.3 19.5 73 3.4 NW 15 20 8 11 1010.7 1008.1 0.0
25/03:00am 24.9 26.0 18.8 69 4.0 NW 11 17 6 9 1010.8 1008.2 0.0
25/02:30am 25.0 26.3 18.4 66 4.3 N 9 13 5 7 1011.0 1008.4 0.0
25/02:00am 25.2 26.4 18.2 65 4.5 N 9 11 5 6 1011.4 1008.7 0.0
25/01:30am 25.7 26.1 18.1 63 4.9 NW 13 17 7 9 1011.6 1008.9 0.0
25/01:00am 25.8 26.2 18.2 63 4.9 WNW 13 19 7 10 1011.7 1009.0 0.0
25/12:30am 25.9 27.2 19.3 67 4.3 NW 11 15 6 8 1012.0 1009.3 0.0
25/12:00am 26.1 27.2 19.7 68 4.2 WNW 13 19 7 10 1012.1 1009.4 0.0
 
Date/Time
CST
Temp
°C
App
Temp
°C
Dew
Point
°C
Rel
Hum
%
Delta-T
°C
Wind Press
QNH
hPa
Press
MSL
hPa
Rain since
9am
mm
Dir  Spd
km/h
Gust
km/h
Spd
kts
Gust
kts
24/11:30pm 26.3 27.4 18.9 63 4.8 NNW 11 19 6 10 1012.3 1009.7 0.0
24/11:00pm 26.7 28.2 18.8 62 5.1 NNW 9 15 5 8 1012.2 1009.5 0.0
24/10:30pm 26.0 28.3 19.9 69 4.0 NNW 7 9 4 5 1011.8 1009.1 0.0
24/10:00pm 26.5 29.1 20.1 68 4.2 NW 6 7 3 4 1011.6 1008.9 0.0
24/09:30pm 27.0 29.4 19.6 64 4.9 W 6 6 3 3 1011.2 1008.6 0.0
24/09:00pm 27.2 29.8 20.0 64 4.8 W 6 6 3 3 1010.9 1008.3 0.0
24/08:30pm 28.0 30.1 19.0 58 5.9 WSW 6 7 3 4 1010.6 1008.0 0.0
24/08:00pm 28.2 30.1 18.9 57 6.1 W 7 9 4 5 1010.3 1007.7 0.0
24/07:30pm 28.6 29.9 18.4 54 6.6 W 9 11 5 6 1010.2 1007.6 0.0
24/07:00pm 28.9 30.6 18.4 53 6.8 W 7 11 4 6 1009.8 1007.1 0.0
24/06:30pm 29.5 30.6 18.0 50 7.5 WSW 9 11 5 6 1009.5 1006.8 0.0
24/06:00pm 30.4 31.4 17.8 46 8.2 WSW 9 13 5 7 1009.2 1006.5 0.0
24/05:30pm 31.1 32.0 16.7 42 9.2 WNW 7 13 4 7 1009.0 1006.3 0.0
24/05:00pm 31.5 32.2 14.6 36 10.5 N 4 6 2 3 1009.0 1006.3 0.0
24/04:30pm 31.6 32.5 15.1 36 10.4 ENE 4 9 2 5 1008.7 1006.1 0.0
24/04:00pm 32.3 32.2 14.9 35 10.9 NE 9 15 5 8 1008.6 1006.0 0.0
24/03:30pm 32.0 32.0 14.2 34 11.0 E 7 15 4 8 1009.0 1006.3 0.0
24/03:00pm 32.2 31.3 14.8 35 10.9 NE 13 20 7 11 1009.4 1006.7 0.0
24/02:30pm 32.0 31.1 13.7 33 11.3 E 11 17 6 9 1009.8 1007.1 0.0
24/02:00pm 31.9 32.0 14.5 34 10.8 NE 7 13 4 7 1010.2 1007.6 0.0
24/01:30pm 31.5 32.0 15.0 36 10.3 NNE 6 11 3 6 1010.9 1008.3 0.0
24/01:00pm 30.8 31.1 16.0 40 9.4 NE 9 15 5 8 1011.4 1008.7 0.0
24/12:30pm 31.1 31.8 15.5 39 9.8 N 6 13 3 7 1012.1 1009.4 0.0
24/12:00pm 29.7 31.3 17.8 48 7.7 NNE 6 11 3 6 1012.6 1010.0 0.0
24/11:30am 28.6 30.7 19.0 56 6.3 N 6 9 3 5 1013.1 1010.5 0.0

Other Formats:

Comma delimited format used in spreadsheet applications
http://www.bom.gov.au/fwo/IDD60801/IDD60801.94141.axf

JavaScript Object Notation format (JSON) in row-major order
http://www.bom.gov.au/fwo/IDD60801/IDD60801.94141.json